createdAt,value
2018-12-20T00:00:40.680Z,101.67
2018-12-20T00:03:09.921Z,95.17
2018-12-20T00:05:39.027Z,101.40
2018-12-20T00:08:08.184Z,107.70
2018-12-20T00:10:37.360Z,95.67
2018-12-20T00:13:06.498Z,100.03
2018-12-20T00:15:35.770Z,109.03
2018-12-20T00:18:04.961Z,99.07
2018-12-20T00:20:34.170Z,92.73
2018-12-20T00:23:03.372Z,91.40
2018-12-20T00:25:32.552Z,91.00
2018-12-20T00:28:01.745Z,103.00
2018-12-20T00:30:30.870Z,89.03
2018-12-20T00:33:00.054Z,94.10
2018-12-20T00:35:29.367Z,102.73
2018-12-20T00:37:58.554Z,88.20
2018-12-20T00:40:27.742Z,88.20
2018-12-20T00:43:00.404Z,91.17
2018-12-20T00:45:29.659Z,87.30
2018-12-20T00:47:58.836Z,84.80
2018-12-20T00:50:28.063Z,83.43
2018-12-20T00:52:57.360Z,83.97
2018-12-20T00:55:26.914Z,91.80
2018-12-20T00:57:56.076Z,97.13
2018-12-20T01:00:25.342Z,86.47
2018-12-20T01:02:55.392Z,84.93
2018-12-20T01:05:25.095Z,90.30
2018-12-20T01:07:55.004Z,91.60
2018-12-20T01:10:24.186Z,83.93
2018-12-20T01:12:53.381Z,90.73
2018-12-20T01:15:22.650Z,84.50
2018-12-20T01:17:51.746Z,91.83
2018-12-20T01:20:20.848Z,97.40
2018-12-20T01:22:50.104Z,86.20
2018-12-20T01:25:19.301Z,92.00
2018-12-20T01:27:48.619Z,90.50
2018-12-20T01:30:17.859Z,98.73
2018-12-20T01:32:46.980Z,88.17
2018-12-20T01:35:16.258Z,89.87
2018-12-20T01:37:45.607Z,92.73
2018-12-20T01:40:14.751Z,86.60
2018-12-20T01:42:44.016Z,94.23
2018-12-20T01:45:13.290Z,101.43
2018-12-20T01:47:42.479Z,94.07
2018-12-20T01:50:11.655Z,95.67
2018-12-20T01:52:40.935Z,96.27
2018-12-20T01:55:10.363Z,91.30
2018-12-20T01:57:39.743Z,98.03
2018-12-20T02:00:10.669Z,102.57
2018-12-20T02:02:39.873Z,102.33
2018-12-20T02:05:09.227Z,101.70
2018-12-20T02:07:38.446Z,85.23
2018-12-20T02:10:07.895Z,94.30
2018-12-20T02:12:37.136Z,105.07
2018-12-20T02:15:06.829Z,90.47
2018-12-20T02:17:35.951Z,91.70
2018-12-20T02:20:05.468Z,94.17
2018-12-20T02:22:34.557Z,93.27
2018-12-20T02:25:04.623Z,99.57
2018-12-20T02:27:33.819Z,95.20
2018-12-20T02:30:03.084Z,94.20
2018-12-20T02:32:32.220Z,104.73
2018-12-20T02:35:01.319Z,111.70
2018-12-20T02:37:30.683Z,113.33
2018-12-20T02:40:00.149Z,94.17
2018-12-20T02:42:29.694Z,118.67
2018-12-20T02:44:58.901Z,110.43
2018-12-20T02:47:30.126Z,104.07
2018-12-20T02:49:59.713Z,112.60
2018-12-20T02:52:29.178Z,107.23
2018-12-20T02:54:58.819Z,114.40
2018-12-20T02:57:28.318Z,95.27
2018-12-20T02:59:57.658Z,106.07
2018-12-20T03:02:28.704Z,111.97
2018-12-20T03:04:57.877Z,96.23
2018-12-20T03:07:27.034Z,106.93
2018-12-20T03:09:56.280Z,89.40
2018-12-20T03:12:25.450Z,99.23
2018-12-20T03:14:54.859Z,118.50
2018-12-20T03:17:24.124Z,106.17
2018-12-20T03:19:53.240Z,98.90
2018-12-20T03:22:22.643Z,90.30
2018-12-20T03:24:52.004Z,97.63
2018-12-20T03:27:21.200Z,95.97
2018-12-20T03:29:50.500Z,93.50
2018-12-20T03:32:19.845Z,91.93
2018-12-20T03:34:49.002Z,97.80
2018-12-20T03:37:18.350Z,111.33
2018-12-20T03:39:47.626Z,113.17
2018-12-20T03:42:16.966Z,86.93
2018-12-20T03:44:46.156Z,89.70
2018-12-20T03:47:15.257Z,96.47
2018-12-20T03:49:44.392Z,98.93
2018-12-20T03:52:13.686Z,89.50
2018-12-20T03:54:42.812Z,84.60
2018-12-20T03:57:11.951Z,94.00
2018-12-20T03:59:41.125Z,90.00
2018-12-20T04:02:10.523Z,99.67
2018-12-20T04:04:39.611Z,94.63
2018-12-20T04:07:08.848Z,103.57
2018-12-20T04:09:38.063Z,94.33
2018-12-20T04:12:07.233Z,93.53
2018-12-20T04:14:36.328Z,106.43
2018-12-20T04:17:05.536Z,82.53
2018-12-20T04:19:34.707Z,107.27
2018-12-20T04:22:04.190Z,95.07
2018-12-20T04:24:33.302Z,91.17
2018-12-20T04:27:02.481Z,95.50
2018-12-20T04:29:31.847Z,103.60
2018-12-20T04:32:00.980Z,90.87
2018-12-20T04:34:30.116Z,94.37
2018-12-20T04:36:59.318Z,91.80
2018-12-20T04:39:29.064Z,94.70
2018-12-20T04:41:58.430Z,104.30
2018-12-20T04:44:27.914Z,100.03
2018-12-20T04:46:57.583Z,109.43
2018-12-20T04:49:28.429Z,100.13
2018-12-20T04:51:57.765Z,115.70
2018-12-20T04:54:27.223Z,92.80
2018-12-20T04:56:56.463Z,88.27
2018-12-20T04:59:25.890Z,88.97
2018-12-20T05:01:55.343Z,88.00
2018-12-20T05:04:24.641Z,100.43
2018-12-20T05:06:53.759Z,89.50
2018-12-20T05:09:22.955Z,101.73
2018-12-20T05:11:52.366Z,94.40
2018-12-20T05:14:21.545Z,92.90
2018-12-20T05:16:50.662Z,112.70
2018-12-20T05:19:22.728Z,87.23
2018-12-20T05:21:51.905Z,97.57
2018-12-20T05:24:21.133Z,82.40
2018-12-20T05:26:50.298Z,97.50
2018-12-20T05:29:19.636Z,89.73
2018-12-20T05:31:48.790Z,98.07
2018-12-20T05:34:18.117Z,101.03
2018-12-20T05:36:47.284Z,89.87
2018-12-20T05:39:16.517Z,101.60
2018-12-20T05:41:45.781Z,102.90
2018-12-20T05:44:15.752Z,85.27
2018-12-20T05:46:44.860Z,102.87
2018-12-20T05:49:14.038Z,97.90
2018-12-20T05:51:43.196Z,86.03
2018-12-20T05:54:12.319Z,93.30
2018-12-20T05:56:41.652Z,93.60
2018-12-20T05:59:10.886Z,83.63
2018-12-20T06:01:39.937Z,87.27
2018-12-20T06:04:09.210Z,102.53
2018-12-20T06:06:40.385Z,89.10
2018-12-20T06:09:09.567Z,87.70
2018-12-20T06:11:38.819Z,94.17
2018-12-20T06:14:08.359Z,93.93
2018-12-20T06:16:37.832Z,84.97
2018-12-20T06:19:07.371Z,78.70
2018-12-20T06:21:36.626Z,96.00
2018-12-20T06:24:05.736Z,81.17
2018-12-20T06:26:34.923Z,85.77
2018-12-20T06:29:04.083Z,92.77
2018-12-20T06:31:33.317Z,92.40
2018-12-20T06:34:02.415Z,86.13
2018-12-20T06:36:31.617Z,79.57
2018-12-20T06:39:00.743Z,75.27
2018-12-20T06:41:29.872Z,73.67
2018-12-20T06:44:06.971Z,60.03
2018-12-20T06:46:30.064Z,71.63
2018-12-20T06:48:59.259Z,67.73
2018-12-20T06:51:28.409Z,76.03
2018-12-20T06:53:57.545Z,85.07
2018-12-20T06:56:26.655Z,70.27
2018-12-20T06:58:55.758Z,72.77
2018-12-20T07:01:24.848Z,65.00
2018-12-20T07:03:53.958Z,67.30
2018-12-20T07:06:23.071Z,64.40
2018-12-20T07:08:52.165Z,67.87
2018-12-20T07:11:21.267Z,62.70
2018-12-20T07:13:50.359Z,74.57
2018-12-20T07:16:19.461Z,77.77
2018-12-20T07:18:49.063Z,66.77
2018-12-20T07:21:18.211Z,63.30
2018-12-20T07:23:47.343Z,62.27
2018-12-20T07:26:16.442Z,58.67
2018-12-20T07:28:45.639Z,58.90
2018-12-20T07:31:14.865Z,59.47
2018-12-20T07:33:43.968Z,62.87
2018-12-20T07:36:13.111Z,67.57
2018-12-20T07:38:42.254Z,59.07
2018-12-20T07:41:11.426Z,58.33
2018-12-20T07:43:40.588Z,62.87
2018-12-20T07:46:09.703Z,55.07
2018-12-20T07:48:38.816Z,63.60
2018-12-20T07:51:07.889Z,51.67
2018-12-20T07:53:37.030Z,62.63
2018-12-20T07:56:06.167Z,61.50
2018-12-20T07:58:35.310Z,46.70
2018-12-20T08:01:04.486Z,58.90
2018-12-20T08:03:33.589Z,53.60
2018-12-20T08:06:02.699Z,52.37
2018-12-20T08:08:31.813Z,50.30
2018-12-20T08:11:00.929Z,52.90
2018-12-20T08:13:30.046Z,49.33
2018-12-20T08:15:59.163Z,44.53
2018-12-20T08:18:28.274Z,50.13
2018-12-20T08:20:57.382Z,46.70
2018-12-20T08:23:26.508Z,47.43
2018-12-20T08:25:55.642Z,40.63
2018-12-20T08:28:24.736Z,53.27
2018-12-20T08:30:53.835Z,48.50
2018-12-20T08:33:22.913Z,41.67
2018-12-20T08:35:52.004Z,46.37
2018-12-20T08:38:21.100Z,42.67
2018-12-20T08:40:50.206Z,43.60
2018-12-20T08:43:19.309Z,42.20
2018-12-20T08:45:48.374Z,41.97
2018-12-20T08:48:17.495Z,43.13
2018-12-20T08:50:46.633Z,36.53
2018-12-20T08:53:15.696Z,39.50
2018-12-20T08:55:44.814Z,38.43
2018-12-20T08:58:13.929Z,42.87
2018-12-20T09:00:43.004Z,40.97
2018-12-20T09:03:12.148Z,40.93
2018-12-20T09:05:41.289Z,41.10
2018-12-20T09:08:10.654Z,36.53
2018-12-20T09:10:39.744Z,38.23
2018-12-20T09:13:09.758Z,29.80
2018-12-20T09:15:39.073Z,38.37
2018-12-20T09:18:08.171Z,35.93
2018-12-20T09:20:37.294Z,31.77
2018-12-20T09:23:06.601Z,32.10
2018-12-20T09:25:35.764Z,27.97
2018-12-20T09:28:04.871Z,36.47
2018-12-20T09:30:34.007Z,27.80
2018-12-20T09:33:03.168Z,31.57
2018-12-20T09:35:33.113Z,32.50
2018-12-20T09:38:02.262Z,27.87
2018-12-20T09:40:31.352Z,30.77
2018-12-20T09:43:00.466Z,29.03
2018-12-20T09:45:29.602Z,31.63
2018-12-20T09:48:04.362Z,31.90
2018-12-20T09:50:33.533Z,27.80
2018-12-20T09:53:02.625Z,23.73
2018-12-20T09:55:31.710Z,24.40
2018-12-20T09:58:00.808Z,22.50
2018-12-20T10:00:30.023Z,19.23
2018-12-20T10:02:59.099Z,24.27
2018-12-20T10:05:28.166Z,26.10
2018-12-20T10:07:57.329Z,22.70
2018-12-20T10:10:27.093Z,22.47
2018-12-20T10:12:56.265Z,18.30
2018-12-20T10:15:25.358Z,16.00
2018-12-20T10:17:54.593Z,18.73
2018-12-20T10:20:23.730Z,16.73
2018-12-20T10:22:52.836Z,17.27
2018-12-20T10:25:21.935Z,15.83
2018-12-20T10:27:51.099Z,18.30
2018-12-20T10:30:20.194Z,17.73
2018-12-20T10:32:49.348Z,16.70
2018-12-20T10:35:18.504Z,15.67
2018-12-20T10:37:47.644Z,15.80
2018-12-20T10:40:16.800Z,12.83
2018-12-20T10:42:45.904Z,15.20
2018-12-20T10:45:15.107Z,14.73
2018-12-20T10:47:44.262Z,12.17
2018-12-20T10:50:13.449Z,12.87
2018-12-20T10:52:42.879Z,13.03
2018-12-20T10:55:12.004Z,11.20
2018-12-20T10:57:41.081Z,11.27
2018-12-20T11:00:10.391Z,13.40
2018-12-20T11:02:45.018Z,14.63
2018-12-20T11:05:19.746Z,11.37
2018-12-20T11:07:55.768Z,13.77
2018-12-20T11:10:27.610Z,10.60
2018-12-20T11:12:56.791Z,12.43
2018-12-20T11:15:26.029Z,12.07
2018-12-20T11:17:55.128Z,14.80
2018-12-20T11:20:24.261Z,14.87
2018-12-20T11:22:53.352Z,12.60
2018-12-20T11:25:22.433Z,11.60
2018-12-20T11:27:51.538Z,14.33
2018-12-20T11:30:20.634Z,12.43
2018-12-20T11:32:49.762Z,11.73
2018-12-20T11:35:18.863Z,8.30
2018-12-20T11:37:47.957Z,9.80
2018-12-20T11:40:17.081Z,8.80
2018-12-20T11:42:46.147Z,8.67
2018-12-20T11:45:15.230Z,8.17
2018-12-20T11:47:45.970Z,7.47
2018-12-20T11:50:15.351Z,6.27
2018-12-20T11:52:44.476Z,7.70
2018-12-20T11:55:13.560Z,6.33
2018-12-20T11:57:44.748Z,6.53
2018-12-20T12:00:13.905Z,6.77
2018-12-20T12:02:43.044Z,8.67
2018-12-20T12:05:12.199Z,6.60
2018-12-20T12:07:41.330Z,7.10
2018-12-20T12:10:10.443Z,6.90
2018-12-20T12:12:39.517Z,6.93
2018-12-20T12:15:08.911Z,6.53
2018-12-20T12:17:38.004Z,6.03
2018-12-20T12:20:07.342Z,6.23
2018-12-20T12:22:36.443Z,6.10
2018-12-20T12:25:06.210Z,6.40
2018-12-20T12:27:35.353Z,7.13
2018-12-20T12:30:05.829Z,7.10
2018-12-20T12:32:34.973Z,7.23
2018-12-20T12:35:04.407Z,7.40
2018-12-20T12:37:33.469Z,6.37
2018-12-20T12:40:02.697Z,6.67
2018-12-20T12:42:32.254Z,7.73
2018-12-20T12:45:01.379Z,8.33
2018-12-20T12:47:35.907Z,7.20
2018-12-20T12:50:05.405Z,7.20
2018-12-20T12:52:34.463Z,7.00
2018-12-20T12:55:03.836Z,8.27
2018-12-20T12:57:32.903Z,7.53
2018-12-20T13:00:02.020Z,9.43
2018-12-20T13:02:31.153Z,8.07
2018-12-20T13:05:00.229Z,7.13
2018-12-20T13:07:29.291Z,8.23
2018-12-20T13:09:58.378Z,8.97
2018-12-20T13:12:27.469Z,7.43
2018-12-20T13:14:56.558Z,9.53
2018-12-20T13:17:25.632Z,8.83
2018-12-20T13:19:54.832Z,10.70
2018-12-20T13:22:23.873Z,10.13
2018-12-20T13:24:53.087Z,11.97
2018-12-20T13:27:22.153Z,8.60
2018-12-20T13:29:51.318Z,8.63
2018-12-20T13:32:20.471Z,9.50
2018-12-20T13:34:49.577Z,10.07
2018-12-20T13:37:18.672Z,9.23
2018-12-20T13:39:47.756Z,10.23
2018-12-20T13:42:16.871Z,12.60
2018-12-20T13:44:45.935Z,10.97
2018-12-20T13:47:18.977Z,10.47
2018-12-20T13:49:48.035Z,11.97
2018-12-20T13:52:20.924Z,11.93
2018-12-20T13:54:53.926Z,12.27
2018-12-20T13:57:26.794Z,12.73
2018-12-20T13:59:59.739Z,12.00
2018-12-20T14:02:32.591Z,12.47
2018-12-20T14:05:06.194Z,13.00
2018-12-20T14:07:35.622Z,12.43
2018-12-20T14:10:08.835Z,14.60
2018-12-20T14:12:41.778Z,14.13
2018-12-20T14:15:14.690Z,17.00
2018-12-20T14:17:47.677Z,17.90
2018-12-20T14:20:20.571Z,14.53
2018-12-20T14:22:53.472Z,15.50
2018-12-20T14:25:26.341Z,16.73
2018-12-20T14:27:59.232Z,13.60
2018-12-20T14:30:32.132Z,9.97
2018-12-20T14:33:05.046Z,11.37
2018-12-20T14:35:37.913Z,10.00
2018-12-20T14:38:10.828Z,15.27
2018-12-20T14:40:43.722Z,10.00
2018-12-20T14:43:16.643Z,11.20
2018-12-20T14:45:49.492Z,13.17
2018-12-20T14:48:29.048Z,11.67
2018-12-20T14:51:02.170Z,12.17
2018-12-20T14:53:35.062Z,12.07
2018-12-20T14:56:07.951Z,10.70
2018-12-20T14:58:40.982Z,10.17
2018-12-20T15:01:13.885Z,8.30
2018-12-20T15:03:47.532Z,9.60
2018-12-20T15:06:20.386Z,10.17
2018-12-20T15:08:53.332Z,7.43
2018-12-20T15:11:26.163Z,8.07
2018-12-20T15:13:59.074Z,6.93
2018-12-20T15:16:32.102Z,7.83
2018-12-20T15:19:04.993Z,8.87
2018-12-20T15:21:37.889Z,10.50
2018-12-20T15:24:10.782Z,13.37
2018-12-20T15:26:43.719Z,10.27
2018-12-20T15:29:16.636Z,12.23
2018-12-20T15:31:53.374Z,11.43
2018-12-20T15:34:24.500Z,12.23
2018-12-20T15:36:57.459Z,13.30
2018-12-20T15:39:30.325Z,11.07
2018-12-20T15:42:03.261Z,14.27
2018-12-20T15:44:36.153Z,16.57
2018-12-20T15:47:09.072Z,12.20
2018-12-20T15:49:42.344Z,14.17
2018-12-20T15:52:15.380Z,15.73
2018-12-20T15:54:48.263Z,14.00
2018-12-20T15:57:21.171Z,14.17
2018-12-20T15:59:54.159Z,15.30
2018-12-20T16:02:28.206Z,13.73
2018-12-20T16:05:01.298Z,11.63
2018-12-20T16:07:34.233Z,12.40
2018-12-20T16:10:08.516Z,12.50
2018-12-20T16:12:41.467Z,10.03
2018-12-20T16:15:14.332Z,11.13
2018-12-20T16:17:47.267Z,12.60
2018-12-20T16:20:20.884Z,10.10
2018-12-20T16:22:54.416Z,12.50
2018-12-20T16:25:27.363Z,11.60
2018-12-20T16:28:00.352Z,10.07
2018-12-20T16:30:33.253Z,9.77
2018-12-20T16:33:06.328Z,11.63
2018-12-20T16:35:39.227Z,10.07
2018-12-20T16:38:12.184Z,13.60
2018-12-20T16:40:45.182Z,13.80
2018-12-20T16:43:16.377Z,13.43
2018-12-20T16:45:49.292Z,15.20
2018-12-20T16:48:24.158Z,11.83
2018-12-20T16:50:57.051Z,17.37
2018-12-20T16:53:29.994Z,14.33
2018-12-20T16:56:03.007Z,16.17
2018-12-20T16:58:36.013Z,17.93
2018-12-20T17:01:09.769Z,17.00
2018-12-20T17:03:42.704Z,14.93
2018-12-20T17:06:15.718Z,19.43
2018-12-20T17:08:48.738Z,19.67
2018-12-20T17:11:21.682Z,16.67
2018-12-20T17:13:54.692Z,15.70
2018-12-20T17:16:27.703Z,23.90
2018-12-20T17:19:00.661Z,16.73
2018-12-20T17:21:33.641Z,16.77
2018-12-20T17:24:06.627Z,14.33
2018-12-20T17:26:39.614Z,14.57
2018-12-20T17:29:12.799Z,20.00
2018-12-20T17:31:45.943Z,18.70
2018-12-20T17:34:18.859Z,15.50
2018-12-20T17:36:51.878Z,12.73
2018-12-20T17:39:24.864Z,15.77
2018-12-20T17:41:57.790Z,14.53
2018-12-20T17:44:30.776Z,13.23
2018-12-20T17:47:03.986Z,13.67
2018-12-20T17:49:36.995Z,14.40
2018-12-20T17:52:10.312Z,12.23
2018-12-20T17:54:43.285Z,12.33
2018-12-20T17:57:16.357Z,13.83
2018-12-20T17:59:49.333Z,15.10
2018-12-20T18:02:22.294Z,11.60
2018-12-20T18:04:55.450Z,10.77
2018-12-20T18:07:28.985Z,13.87
2018-12-20T18:10:01.899Z,10.57
2018-12-20T18:12:34.950Z,13.50
2018-12-20T18:15:09.035Z,12.23
2018-12-20T18:17:42.086Z,13.67
2018-12-20T18:20:15.149Z,10.83
2018-12-20T18:22:48.144Z,12.03
2018-12-20T18:25:21.121Z,10.87
2018-12-20T18:27:54.127Z,10.63
2018-12-20T18:30:27.866Z,9.17
2018-12-20T18:33:00.878Z,10.73
2018-12-20T18:35:33.832Z,14.07
2018-12-20T18:38:06.768Z,9.33
2018-12-20T18:40:39.714Z,9.67
2018-12-20T18:43:13.506Z,11.50
2018-12-20T18:45:47.328Z,9.10
2018-12-20T18:48:20.186Z,11.07
2018-12-20T18:50:53.113Z,10.70
2018-12-20T18:53:26.071Z,9.67
2018-12-20T18:55:58.942Z,9.40
2018-12-20T18:58:31.830Z,7.17
2018-12-20T19:01:04.864Z,7.87
2018-12-20T19:03:37.764Z,7.27
2018-12-20T19:06:10.671Z,5.30
2018-12-20T19:08:43.532Z,7.87
2018-12-20T19:11:16.533Z,9.67
2018-12-20T19:13:49.406Z,6.83
2018-12-20T19:16:22.303Z,8.63
2018-12-20T19:18:55.284Z,5.57
2018-12-20T19:21:28.183Z,9.93
2018-12-20T19:24:01.159Z,7.63
2018-12-20T19:26:34.071Z,7.23
2018-12-20T19:29:06.937Z,7.70
2018-12-20T19:31:39.879Z,7.03
2018-12-20T19:34:12.761Z,7.70
2018-12-20T19:36:45.657Z,6.57
2018-12-20T19:39:18.544Z,7.73
2018-12-20T19:41:51.478Z,5.90
2018-12-20T19:44:24.369Z,7.00
2018-12-20T19:46:57.338Z,7.93
2018-12-20T19:49:28.845Z,8.50
2018-12-20T19:52:01.770Z,5.63
2018-12-20T19:54:34.692Z,8.00
2018-12-20T19:57:07.650Z,4.63
2018-12-20T19:59:40.635Z,6.47
2018-12-20T20:02:13.730Z,6.50
2018-12-20T20:04:46.627Z,5.37
2018-12-20T20:07:19.546Z,6.57
2018-12-20T20:09:52.459Z,9.27
2018-12-20T20:12:25.373Z,4.03
2018-12-20T20:14:58.340Z,6.07
2018-12-20T20:17:31.256Z,5.77
2018-12-20T20:20:13.510Z,5.07
2018-12-20T20:22:40.204Z,5.37
2018-12-20T20:25:13.142Z,6.50
2018-12-20T20:27:46.202Z,7.10
2018-12-20T20:30:19.177Z,6.20
2018-12-20T20:32:52.025Z,4.93
2018-12-20T20:35:24.883Z,4.57
2018-12-20T20:37:57.793Z,5.60
2018-12-20T20:40:30.683Z,4.87
2018-12-20T20:43:03.568Z,5.73
2018-12-20T20:45:36.422Z,5.90
2018-12-20T20:48:09.409Z,4.23
2018-12-20T20:50:42.283Z,7.70
2018-12-20T20:53:15.259Z,5.53
2018-12-20T20:55:48.135Z,5.70
2018-12-20T20:58:21.056Z,4.60
2018-12-20T21:00:53.970Z,5.90
2018-12-20T21:03:26.879Z,4.93
2018-12-20T21:05:59.841Z,4.13
2018-12-20T21:08:32.838Z,7.07
2018-12-20T21:11:05.727Z,4.90
2018-12-20T21:13:38.596Z,5.27
2018-12-20T21:16:11.508Z,4.17
2018-12-20T21:18:44.420Z,6.23
2018-12-20T21:21:20.320Z,6.00
2018-12-20T21:23:53.270Z,6.80
2018-12-20T21:26:26.364Z,4.90
2018-12-20T21:28:59.293Z,4.07
2018-12-20T21:31:32.400Z,4.87
2018-12-20T21:34:05.415Z,5.83
2018-12-20T21:36:38.489Z,6.53
2018-12-20T21:39:11.492Z,5.33
2018-12-20T21:41:44.361Z,4.10
2018-12-20T21:44:17.313Z,4.53
2018-12-20T21:46:50.198Z,3.73
2018-12-20T21:49:23.208Z,5.67
2018-12-20T21:51:56.130Z,5.57
2018-12-20T21:54:29.033Z,3.13
2018-12-20T21:57:01.985Z,3.87
2018-12-20T21:59:34.901Z,3.57
2018-12-20T22:02:07.769Z,3.27
2018-12-20T22:04:40.677Z,3.60
2018-12-20T22:07:13.539Z,3.20
2018-12-20T22:09:46.459Z,3.33
2018-12-20T22:12:19.312Z,2.97
2018-12-20T22:14:52.184Z,3.03
2018-12-20T22:17:25.065Z,3.00
2018-12-20T22:19:58.659Z,3.67
2018-12-20T22:22:31.847Z,4.47
2018-12-20T22:25:05.060Z,4.47
2018-12-20T22:27:37.940Z,3.00
2018-12-20T22:32:49.978Z,5.30
2018-12-20T22:35:24.883Z,3.33
2018-12-20T22:37:57.822Z,7.20
2018-12-20T22:40:30.721Z,3.73
2018-12-20T22:43:03.672Z,2.60
2018-12-20T22:45:36.583Z,3.67
2018-12-20T22:48:05.662Z,3.87
2018-12-20T22:50:38.563Z,4.23
2018-12-20T22:53:11.426Z,4.37
2018-12-20T22:55:44.340Z,4.93
2018-12-20T22:58:17.205Z,3.97
2018-12-20T23:00:54.344Z,3.53
2018-12-20T23:03:27.205Z,3.43
2018-12-20T23:06:01.423Z,4.30
2018-12-20T23:08:34.552Z,2.73
2018-12-20T23:11:07.628Z,4.00
2018-12-20T23:13:40.512Z,5.83
2018-12-20T23:16:13.380Z,6.20
2018-12-20T23:18:46.276Z,3.83
2018-12-20T23:21:19.316Z,4.80
2018-12-20T23:23:52.168Z,4.63
2018-12-20T23:26:25.049Z,4.50
2018-12-20T23:28:57.934Z,4.77
2018-12-20T23:31:30.856Z,4.27
2018-12-20T23:34:03.849Z,5.20
2018-12-20T23:36:36.745Z,5.00
2018-12-20T23:39:09.661Z,7.30
2018-12-20T23:41:38.730Z,7.97
2018-12-20T23:44:11.640Z,5.40
2018-12-20T23:46:44.529Z,5.73
2018-12-20T23:49:17.402Z,6.93
2018-12-20T23:51:50.334Z,5.17
2018-12-20T23:54:23.224Z,6.43
2018-12-20T23:56:57.825Z,4.73
2018-12-20T23:59:30.896Z,2.87
